createdAt,value
2022-12-03T00:01:24.031Z,93.38
2022-12-03T00:04:26.670Z,93.17
2022-12-03T00:07:29.393Z,92.66
2022-12-03T00:10:32.140Z,93.56
2022-12-03T00:13:38.473Z,92.88
2022-12-03T00:16:46.160Z,93.52
2022-12-03T00:19:53.634Z,94.14
2022-12-03T00:22:58.616Z,94.25
2022-12-03T00:26:03.562Z,94.73
2022-12-03T00:29:10.527Z,94.99
2022-12-03T00:32:15.062Z,94.93
2022-12-03T00:35:20.361Z,95.07
2022-12-03T00:38:25.182Z,94.95
2022-12-03T00:41:32.358Z,95.38
2022-12-03T00:44:38.585Z,95.93
2022-12-03T00:47:43.461Z,95.82
2022-12-03T00:50:48.111Z,96.17
2022-12-03T00:53:52.923Z,96.12
2022-12-03T00:56:57.679Z,96.62
2022-12-03T01:00:05.407Z,97.04
2022-12-03T01:03:10.857Z,95.87
2022-12-03T01:06:15.362Z,97.04
2022-12-03T01:09:19.736Z,96.37
2022-12-03T01:12:24.652Z,96.66
2022-12-03T01:15:33.767Z,96.12
2022-12-03T01:18:38.574Z,96.15
2022-12-03T01:21:43.715Z,95.76
2022-12-03T01:24:48.357Z,96.20
2022-12-03T01:27:53.410Z,96.50
2022-12-03T01:31:27.547Z,97.00
2022-12-03T01:34:32.224Z,96.58
2022-12-03T01:37:37.196Z,96.40
2022-12-03T01:40:41.898Z,96.42
2022-12-03T01:43:46.887Z,97.45
2022-12-03T01:46:55.314Z,97.08
2022-12-03T01:50:05.171Z,96.82
2022-12-03T01:53:13.567Z,97.90
2022-12-03T01:56:19.934Z,97.24
2022-12-03T01:59:31.819Z,96.93
2022-12-03T02:02:38.209Z,97.41
2022-12-03T02:05:43.168Z,96.98
2022-12-03T02:08:50.327Z,97.16
2022-12-03T02:11:54.809Z,96.81
2022-12-03T02:14:59.620Z,97.44
2022-12-03T02:18:05.751Z,97.09
2022-12-03T02:21:16.491Z,97.78
2022-12-03T02:24:30.365Z,97.36
2022-12-03T02:27:36.525Z,97.43
2022-12-03T02:30:41.939Z,97.95
2022-12-03T02:33:46.916Z,97.32
2022-12-03T02:36:51.323Z,98.68
2022-12-03T02:39:58.718Z,98.16
2022-12-03T02:43:07.939Z,97.90
2022-12-03T02:46:12.882Z,96.64
2022-12-03T02:49:17.847Z,97.53
2022-12-03T02:52:22.875Z,96.75
2022-12-03T02:55:33.309Z,97.23
2022-12-03T02:58:44.189Z,97.59
2022-12-03T03:01:48.947Z,96.62
2022-12-03T03:04:53.762Z,96.81
2022-12-03T03:08:01.096Z,96.97
2022-12-03T03:11:06.208Z,96.31
2022-12-03T03:14:12.328Z,96.99
2022-12-03T03:17:17.522Z,96.83
2022-12-03T03:20:22.546Z,96.56
2022-12-03T03:23:27.618Z,96.57
2022-12-03T03:26:32.028Z,97.78
2022-12-03T03:29:38.693Z,96.85
2022-12-03T03:32:44.216Z,97.22
2022-12-03T03:35:50.572Z,96.83
2022-12-03T03:38:55.756Z,98.30
2022-12-03T03:42:00.764Z,98.35
2022-12-03T03:45:08.380Z,98.07
2022-12-03T03:48:15.209Z,98.33
2022-12-03T03:51:21.552Z,97.56
2022-12-03T03:54:26.823Z,97.80
2022-12-03T03:57:31.912Z,97.58
2022-12-03T04:00:39.630Z,97.84
2022-12-03T04:03:44.730Z,96.87
2022-12-03T04:06:49.080Z,95.96
2022-12-03T04:09:53.512Z,96.00
2022-12-03T04:12:56.890Z,96.43
2022-12-03T04:16:03.478Z,95.89
2022-12-03T04:19:08.117Z,95.88
2022-12-03T04:22:29.362Z,96.51
2022-12-03T04:25:50.961Z,96.59
2022-12-03T04:28:55.805Z,96.48
2022-12-03T04:32:18.970Z,96.35
2022-12-03T04:35:40.350Z,95.11
2022-12-03T04:38:45.012Z,95.75
2022-12-03T04:41:49.453Z,95.37
2022-12-03T04:44:56.288Z,95.21
2022-12-03T04:48:02.414Z,95.29
2022-12-03T04:51:07.308Z,95.66
2022-12-03T04:54:12.029Z,96.25
2022-12-03T04:57:16.723Z,96.65
2022-12-03T05:00:21.578Z,95.92
2022-12-03T05:03:27.640Z,96.77
2022-12-03T05:06:32.138Z,96.42
2022-12-03T05:09:36.812Z,95.60
2022-12-03T05:12:41.570Z,96.00
2022-12-03T05:15:46.205Z,96.43
2022-12-03T05:18:52.058Z,95.62
2022-12-03T05:21:56.348Z,95.46
2022-12-03T05:25:01.049Z,95.90
2022-12-03T05:28:05.879Z,96.21
2022-12-03T05:31:10.651Z,94.63
2022-12-03T05:34:17.263Z,95.79
2022-12-03T05:37:21.983Z,94.94
2022-12-03T05:40:27.077Z,95.46
2022-12-03T05:43:30.495Z,95.53
2022-12-03T05:46:35.191Z,95.77
2022-12-03T05:49:41.520Z,95.35
2022-12-03T05:52:46.343Z,95.33
2022-12-03T05:55:51.648Z,95.60
2022-12-03T05:58:57.243Z,96.31
2022-12-03T06:02:02.110Z,95.45
2022-12-03T06:05:09.754Z,95.50
2022-12-03T06:08:14.208Z,95.06
2022-12-03T06:11:18.820Z,95.95
2022-12-03T06:14:23.068Z,96.29
2022-12-03T06:17:27.594Z,95.32
2022-12-03T06:20:34.098Z,95.36
2022-12-03T06:23:44.972Z,95.78
2022-12-03T06:26:49.371Z,96.13
2022-12-03T06:29:53.724Z,95.43
2022-12-03T06:32:58.305Z,95.54
2022-12-03T06:36:05.126Z,96.25
2022-12-03T06:39:09.478Z,95.98
2022-12-03T06:42:13.694Z,95.23
2022-12-03T06:45:18.386Z,95.56
2022-12-03T06:48:23.078Z,95.04
2022-12-03T06:51:29.058Z,95.15
2022-12-03T06:54:33.389Z,95.53
2022-12-03T06:57:38.128Z,95.04
2022-12-03T07:00:42.386Z,94.57
2022-12-03T07:03:47.048Z,94.32
2022-12-03T07:06:54.804Z,95.47
2022-12-03T07:09:59.716Z,96.31
2022-12-03T07:13:04.289Z,96.48
2022-12-03T07:16:12.111Z,96.09
2022-12-03T07:19:17.243Z,95.95
2022-12-03T07:22:23.464Z,95.37
2022-12-03T07:25:28.126Z,96.20
2022-12-03T07:28:32.760Z,95.62
2022-12-03T07:31:37.136Z,95.02
2022-12-03T07:34:42.428Z,95.30
2022-12-03T07:37:50.322Z,95.19
2022-12-03T07:40:55.166Z,95.38
2022-12-03T07:43:59.912Z,95.13
2022-12-03T07:47:04.665Z,95.36
2022-12-03T07:50:10.846Z,95.61
2022-12-03T07:53:17.585Z,95.57
2022-12-03T07:56:25.377Z,95.78
2022-12-03T07:59:30.637Z,95.75
2022-12-03T08:02:35.823Z,94.82
2022-12-03T08:05:49.373Z,95.06
2022-12-03T08:09:02.341Z,95.21
2022-12-03T08:12:14.983Z,95.11
2022-12-03T08:15:26.030Z,94.94
2022-12-03T08:18:31.666Z,95.20
2022-12-03T08:21:38.756Z,95.21
2022-12-03T08:24:45.272Z,94.35
2022-12-03T08:28:45.983Z,94.15
2022-12-03T08:31:55.168Z,94.21
2022-12-03T08:35:00.140Z,94.53
2022-12-03T08:38:12.117Z,94.26
2022-12-03T08:41:40.326Z,94.82
2022-12-03T08:44:45.125Z,95.09
2022-12-03T08:47:50.060Z,95.46
2022-12-03T08:50:57.379Z,95.24
2022-12-03T08:54:09.773Z,95.95
2022-12-03T08:57:30.118Z,95.01
2022-12-03T09:00:34.760Z,94.98
2022-12-03T09:03:40.727Z,93.78
2022-12-03T09:06:45.550Z,93.76
2022-12-03T09:09:51.025Z,93.31
2022-12-03T09:12:58.500Z,93.42
2022-12-03T09:16:03.606Z,93.19
2022-12-03T09:19:08.435Z,94.00
2022-12-03T09:22:13.688Z,93.21
2022-12-03T09:25:19.190Z,93.18
2022-12-03T09:28:25.823Z,90.61
2022-12-03T09:31:30.941Z,90.46
2022-12-03T09:34:35.534Z,90.10
2022-12-03T09:37:40.583Z,89.36
2022-12-03T09:40:45.469Z,89.46
2022-12-03T09:44:10.801Z,89.72
2022-12-03T09:47:17.353Z,89.43
2022-12-03T09:50:23.810Z,89.05
2022-12-03T09:53:30.370Z,87.86
2022-12-03T09:56:37.829Z,89.69
2022-12-03T09:59:44.179Z,90.11
2022-12-03T10:02:50.664Z,87.82
2022-12-03T10:05:56.781Z,87.34
2022-12-03T10:09:01.753Z,88.16
2022-12-03T10:12:09.963Z,87.00
2022-12-03T10:15:18.598Z,87.67
2022-12-03T10:18:30.480Z,87.72
2022-12-03T10:21:39.830Z,87.17
2022-12-03T10:24:45.443Z,88.03
2022-12-03T10:28:03.144Z,88.35
2022-12-03T10:31:10.706Z,88.14
2022-12-03T10:34:26.944Z,88.03
2022-12-03T10:37:32.312Z,87.47
2022-12-03T10:40:41.067Z,87.83
2022-12-03T10:43:46.106Z,88.08
2022-12-03T10:47:10.707Z,87.93
2022-12-03T10:50:23.467Z,88.65
2022-12-03T10:53:32.015Z,87.21
2022-12-03T10:56:37.221Z,86.58
2022-12-03T10:59:43.700Z,86.82
2022-12-03T11:03:05.225Z,88.64
2022-12-03T11:06:15.695Z,88.25
2022-12-03T11:09:27.188Z,87.52
2022-12-03T11:12:35.252Z,87.11
2022-12-03T11:15:47.474Z,86.28
2022-12-03T11:19:04.435Z,89.08
2022-12-03T11:22:41.782Z,89.09
2022-12-03T11:25:50.917Z,87.74
2022-12-03T11:28:56.939Z,89.02
2022-12-03T11:32:01.973Z,89.06
2022-12-03T11:35:14.922Z,88.78
2022-12-03T11:38:48.899Z,89.36
2022-12-03T11:42:30.810Z,89.42
2022-12-03T11:45:38.338Z,89.75
2022-12-03T11:48:46.367Z,90.26
2022-12-03T11:51:54.893Z,88.13
2022-12-03T11:55:04.527Z,90.11
2022-12-03T11:58:19.570Z,89.02
2022-12-03T12:01:38.945Z,89.90
2022-12-03T12:04:48.585Z,89.57
2022-12-03T12:07:55.227Z,89.93
2022-12-03T12:11:00.970Z,86.90
2022-12-03T12:14:06.742Z,86.64
2022-12-03T12:17:36.301Z,86.71
2022-12-03T12:20:41.173Z,87.45
2022-12-03T12:23:47.767Z,87.45
2022-12-03T12:26:53.303Z,89.35
2022-12-03T12:30:00.540Z,85.99
2022-12-03T12:33:16.263Z,87.20
2022-12-03T12:36:21.187Z,85.94
2022-12-03T12:39:29.004Z,85.04
2022-12-03T12:42:36.248Z,85.41
2022-12-03T12:45:43.631Z,86.38
2022-12-03T12:48:48.636Z,87.16
2022-12-03T12:51:53.685Z,85.78
2022-12-03T12:55:04.851Z,86.38
2022-12-03T12:58:16.131Z,86.68
2022-12-03T13:01:26.068Z,86.54
2022-12-03T13:04:33.185Z,86.07
2022-12-03T13:07:38.044Z,85.14
2022-12-03T13:10:44.091Z,84.62
2022-12-03T13:13:49.305Z,85.63
2022-12-03T13:16:57.045Z,85.46
2022-12-03T13:20:07.884Z,86.14
2022-12-03T13:23:28.812Z,86.60
2022-12-03T13:26:42.057Z,86.39
2022-12-03T13:29:48.158Z,87.41
2022-12-03T13:32:55.870Z,84.89
2022-12-03T13:35:59.938Z,86.73
2022-12-03T13:39:11.237Z,86.81
2022-12-03T13:42:42.342Z,87.18
2022-12-03T13:45:49.696Z,87.74
2022-12-03T13:48:58.686Z,89.14
2022-12-03T13:52:11.153Z,89.77
2022-12-03T13:55:24.532Z,88.51
2022-12-03T13:58:30.985Z,89.69
2022-12-03T14:01:36.550Z,89.19
2022-12-03T14:04:41.946Z,87.94
2022-12-03T14:07:46.528Z,87.69
2022-12-03T14:10:55.552Z,87.59
2022-12-03T14:14:07.939Z,87.34
2022-12-03T14:17:14.566Z,86.79
2022-12-03T14:20:19.938Z,86.00
2022-12-03T14:23:25.754Z,86.84
2022-12-03T14:26:30.545Z,86.55
2022-12-03T14:29:36.963Z,86.22
2022-12-03T14:32:43.058Z,86.74
2022-12-03T14:35:47.633Z,86.21
2022-12-03T14:38:52.406Z,86.17
2022-12-03T14:42:15.626Z,86.14
2022-12-03T14:45:23.366Z,87.13
2022-12-03T14:48:29.973Z,87.25
2022-12-03T14:51:34.621Z,87.24
2022-12-03T14:54:42.893Z,87.07
2022-12-03T14:57:47.783Z,87.44
2022-12-03T15:00:54.166Z,88.08
2022-12-03T15:03:58.816Z,86.84
2022-12-03T15:07:03.962Z,87.39
2022-12-03T15:10:09.691Z,87.68
2022-12-03T15:13:14.726Z,87.74
2022-12-03T15:16:22.888Z,87.64
2022-12-03T15:19:27.709Z,87.39
2022-12-03T15:22:32.574Z,87.62
2022-12-03T15:25:38.013Z,86.73
2022-12-03T15:28:47.928Z,87.61
2022-12-03T15:31:54.761Z,86.78
2022-12-03T15:35:00.277Z,86.97
2022-12-03T15:38:05.427Z,86.68
2022-12-03T15:41:29.526Z,86.06
2022-12-03T15:44:37.909Z,86.32
2022-12-03T15:47:44.988Z,86.37
2022-12-03T15:50:50.657Z,87.53
2022-12-03T15:53:55.745Z,86.78
2022-12-03T15:57:00.558Z,87.21
2022-12-03T16:00:06.710Z,86.78
2022-12-03T16:03:13.290Z,87.26
2022-12-03T16:06:20.064Z,87.07
2022-12-03T16:09:27.389Z,87.02
2022-12-03T16:12:32.446Z,85.32
2022-12-03T16:15:36.992Z,86.22
2022-12-03T16:18:44.632Z,85.99
2022-12-03T16:21:49.494Z,85.75
2022-12-03T16:24:54.370Z,85.49
2022-12-03T16:27:59.524Z,85.43
2022-12-03T16:31:05.077Z,84.22
2022-12-03T16:34:13.452Z,84.58
2022-12-03T16:37:18.126Z,85.39
2022-12-03T16:40:22.638Z,85.34
2022-12-03T16:43:27.881Z,85.21
2022-12-03T16:46:32.983Z,85.61
2022-12-03T16:49:39.371Z,85.27
2022-12-03T16:52:43.644Z,84.98
2022-12-03T16:55:48.151Z,86.01
2022-12-03T16:58:53.781Z,85.85
2022-12-03T17:01:58.211Z,86.62
2022-12-03T17:05:04.219Z,87.91
2022-12-03T17:08:07.439Z,86.85
2022-12-03T17:11:10.536Z,87.42
2022-12-03T17:14:13.449Z,87.54
2022-12-03T17:17:16.320Z,88.08
2022-12-03T17:20:21.279Z,87.62
2022-12-03T17:23:24.608Z,87.37
2022-12-03T17:26:27.649Z,88.74
2022-12-03T17:29:30.646Z,88.44
2022-12-03T17:32:33.635Z,88.64
2022-12-03T17:35:37.745Z,88.74
2022-12-03T17:38:40.617Z,89.49
2022-12-03T17:41:43.569Z,88.69
2022-12-03T17:44:46.613Z,88.06
2022-12-03T17:47:49.588Z,88.06
2022-12-03T17:50:55.340Z,88.07
2022-12-03T17:53:58.151Z,87.21
2022-12-03T17:57:01.102Z,87.94
2022-12-03T18:00:05.476Z,87.26
2022-12-03T18:03:08.297Z,86.44
2022-12-03T18:06:12.561Z,87.84
2022-12-03T18:09:15.597Z,88.14
2022-12-03T18:12:18.516Z,87.96
2022-12-03T18:15:21.352Z,88.80
2022-12-03T18:18:24.185Z,89.36
2022-12-03T18:21:29.133Z,88.51
2022-12-03T18:24:31.998Z,87.62
2022-12-03T18:27:35.176Z,87.80
2022-12-03T18:30:38.098Z,88.03
2022-12-03T18:33:41.120Z,87.72
2022-12-03T18:36:45.515Z,87.29
2022-12-03T18:39:48.978Z,87.82
2022-12-03T18:42:52.032Z,87.58
2022-12-03T18:45:55.089Z,87.47
2022-12-03T18:48:58.048Z,86.80
2022-12-03T18:52:02.464Z,87.57
2022-12-03T18:55:06.353Z,88.14
2022-12-03T18:58:09.415Z,87.84
2022-12-03T19:01:16.188Z,87.65
2022-12-03T19:04:20.493Z,87.59
2022-12-03T19:07:24.659Z,86.85
2022-12-03T19:10:28.366Z,87.37
2022-12-03T19:13:31.302Z,87.17
2022-12-03T19:16:39.730Z,88.61
2022-12-03T19:19:42.736Z,88.47
2022-12-03T19:22:47.181Z,88.68
2022-12-03T19:25:56.945Z,89.19
2022-12-03T19:28:59.795Z,89.52
2022-12-03T19:32:09.986Z,88.87
2022-12-03T19:35:21.446Z,88.78
2022-12-03T19:38:27.177Z,88.85
2022-12-03T19:41:31.435Z,88.70
2022-12-03T19:44:34.717Z,88.94
2022-12-03T19:47:38.114Z,88.96
2022-12-03T19:50:58.389Z,89.42
2022-12-03T19:54:14.082Z,88.83
2022-12-03T19:57:23.086Z,88.58
2022-12-03T20:00:26.281Z,89.26
2022-12-03T20:03:29.040Z,88.87
2022-12-03T20:06:34.901Z,88.90
2022-12-03T20:09:39.057Z,88.96
2022-12-03T20:12:41.714Z,89.19
2022-12-03T20:15:44.436Z,88.93
2022-12-03T20:18:57.410Z,89.21
2022-12-03T20:22:02.705Z,88.97
2022-12-03T20:25:17.759Z,89.44
2022-12-03T20:28:20.550Z,87.96
2022-12-03T20:31:24.784Z,88.91
2022-12-03T20:34:27.547Z,88.41
2022-12-03T20:37:30.319Z,87.88
2022-12-03T20:40:37.765Z,87.75
2022-12-03T20:43:40.695Z,88.69
2022-12-03T20:46:43.495Z,88.54
2022-12-03T20:49:46.333Z,88.71
2022-12-03T20:53:09.756Z,88.70
2022-12-03T20:56:18.590Z,88.95
2022-12-03T20:59:24.050Z,88.33
2022-12-03T21:02:28.066Z,88.18
2022-12-03T21:05:30.848Z,87.35
2022-12-03T21:08:41.064Z,88.16
2022-12-03T21:11:46.485Z,89.71
2022-12-03T21:14:49.392Z,88.82
2022-12-03T21:17:52.246Z,88.38
2022-12-03T21:20:55.014Z,87.99
2022-12-03T21:23:58.141Z,88.26
2022-12-03T21:27:02.291Z,88.04
2022-12-03T21:30:06.160Z,87.32
2022-12-03T21:33:08.986Z,87.37
2022-12-03T21:36:14.144Z,88.30
2022-12-03T21:39:16.844Z,87.55
2022-12-03T21:42:34.368Z,88.40
2022-12-03T21:45:40.793Z,88.68
2022-12-03T21:48:43.640Z,87.99
2022-12-03T21:51:46.732Z,89.28
2022-12-03T21:54:49.566Z,89.93
2022-12-03T21:57:53.968Z,88.57
2022-12-03T22:00:56.761Z,88.31
2022-12-03T22:03:59.678Z,88.50
2022-12-03T22:07:02.451Z,88.45
2022-12-03T22:10:06.113Z,88.88
2022-12-03T22:13:10.331Z,89.12
2022-12-03T22:16:15.507Z,89.76
2022-12-03T22:19:18.280Z,89.65
2022-12-03T22:22:21.475Z,88.13
2022-12-03T22:25:24.185Z,88.51
2022-12-03T22:28:29.470Z,88.77
2022-12-03T22:31:32.311Z,87.84
2022-12-03T22:34:35.127Z,87.60
2022-12-03T22:37:37.857Z,87.65
2022-12-03T22:40:40.815Z,87.06
2022-12-03T22:43:46.050Z,86.65
2022-12-03T22:46:48.834Z,87.81
2022-12-03T22:49:51.649Z,87.57
2022-12-03T22:52:54.336Z,88.00
2022-12-03T22:55:58.475Z,88.11
2022-12-03T22:59:02.790Z,89.03
2022-12-03T23:02:05.538Z,88.39
2022-12-03T23:05:08.596Z,89.02
2022-12-03T23:08:13.691Z,88.84
2022-12-03T23:11:17.202Z,88.95
2022-12-03T23:14:21.679Z,89.59
2022-12-03T23:17:24.614Z,89.32
2022-12-03T23:20:30.063Z,88.45
2022-12-03T23:23:32.893Z,88.50
2022-12-03T23:26:37.314Z,88.50
2022-12-03T23:29:41.690Z,87.31
2022-12-03T23:32:44.937Z,88.18
2022-12-03T23:35:47.644Z,88.53
2022-12-03T23:38:51.124Z,87.91
2022-12-03T23:41:53.810Z,88.69
2022-12-03T23:44:57.896Z,89.23
2022-12-03T23:48:00.730Z,89.54
2022-12-03T23:51:08.019Z,88.64
2022-12-03T23:54:12.124Z,87.60
2022-12-03T23:57:15.916Z,87.90
